sensor_id;sensor_type;location;lat;lon;timestamp;pressure;altitude;pressure_sealevel;temperature;humidity
17950;BME280;9100;48.700;9.316;2023-01-31T00:00:00;98600.9;;;3.46;100
17950;BME280;9100;48.700;9.316;2023-01-31T00:00:34;98604.2;;;3.47;100
17950;BME280;9100;48.700;9.316;2023-01-31T00:01:04;98599.90000000001;;;3.47;100
17950;BME280;9100;48.700;9.316;2023-01-31T00:02:00;98597.29999999999;;;3.49;100
17950;BME280;9100;48.700;9.316;2023-01-31T00:03:00;98603.2;;;3.49;100
17950;BME280;9100;48.700;9.316;2023-01-31T00:04:01;98598.90000000001;;;3.5;100
17950;BME280;9100;48.700;9.316;2023-01-31T00:05:00;98608.2;;;3.49;100
17950;BME280;9100;48.700;9.316;2023-01-31T00:05:34;98606.6;;;3.48;100
17950;BME280;9100;48.700;9.316;2023-01-31T00:06:08;98603.2;;;3.49;100
17950;BME280;9100;48.700;9.316;2023-01-31T00:07:00;98613.3;;;3.49;100
17950;BME280;9100;48.700;9.316;2023-01-31T00:08:00;98608.2;;;3.49;100
17950;BME280;9100;48.700;9.316;2023-01-31T00:09:01;98613.3;;;3.49;100
17950;BME280;9100;48.700;9.316;2023-01-31T00:10:00;98602.5;;;3.47;100
17950;BME280;9100;48.700;9.316;2023-01-31T00:10:34;98608.2;;;3.49;100
17950;BME280;9100;48.700;9.316;2023-01-31T00:11:01;98601.59999999999;;;3.48;100
17950;BME280;9100;48.700;9.316;2023-01-31T00:12:01;98607.4;;;3.49;100
17950;BME280;9100;48.700;9.316;2023-01-31T00:13:00;98605.7;;;3.49;100
17950;BME280;9100;48.700;9.316;2023-01-31T00:14:02;98604;;;3.5;100
17950;BME280;9100;48.700;9.316;2023-01-31T00:15:01;98605.6;;;3.51;100
17950;BME280;9100;48.700;9.316;2023-01-31T00:15:34;98603.4;;;3.46;100
17950;BME280;9100;48.700;9.316;2023-01-31T00:16:02;98599.90000000001;;;3.47;100
17950;BME280;9100;48.700;9.316;2023-01-31T00:17:00;98601.59999999999;;;3.48;100
17950;BME280;9100;48.700;9.316;2023-01-31T00:18:00;98601.59999999999;;;3.48;100
17950;BME280;9100;48.700;9.316;2023-01-31T00:19:00;98599;;;3.48;100
17950;BME280;9100;48.700;9.316;2023-01-31T00:20:00;98598.1;;;3.49;100
17950;BME280;9100;48.700;9.316;2023-01-31T00:20:34;98596.5;;;3.48;100
17950;BME280;9100;48.700;9.316;2023-01-31T00:21:03;98598.1;;;3.49;100
17950;BME280;9100;48.700;9.316;2023-01-31T00:22:00;98594.7;;;3.5;100
17950;BME280;9100;48.700;9.316;2023-01-31T00:23:01;98590.4;;;3.51;100
17950;BME280;9100;48.700;9.316;2023-01-31T00:24:00;98594.7;;;3.5;100
17950;BME280;9100;48.700;9.316;2023-01-31T00:25:00;98597.2;;;3.5;100
17950;BME280;9100;48.700;9.316;2023-01-31T00:25:34;98594.7;;;3.5;100
17950;BME280;9100;48.700;9.316;2023-01-31T00:26:08;98596.3;;;3.51;100
17950;BME280;9100;48.700;9.316;2023-01-31T00:27:00;98601.3;;;3.51;100
17950;BME280;9100;48.700;9.316;2023-01-31T00:28:00;98600.40000000001;;;3.52;100
17950;BME280;9100;48.700;9.316;2023-01-31T00:29:00;98587.90000000001;;;3.51;100
17950;BME280;9100;48.700;9.316;2023-01-31T00:30:00;98598;;;3.51;100
17950;BME280;9100;48.700;9.316;2023-01-31T00:30:34;98597.1;;;3.52;100
17950;BME280;9100;48.700;9.316;2023-01-31T00:31:00;98601.3;;;3.51;100
17950;BME280;9100;48.700;9.316;2023-01-31T00:32:00;98595.4;;;3.52;100
17950;BME280;9100;48.700;9.316;2023-01-31T00:33:00;98599.59999999999;;;3.52;100
17950;BME280;9100;48.700;9.316;2023-01-31T00:34:01;98598.1;;;3.49;100
17950;BME280;9100;48.700;9.316;2023-01-31T00:35:00;98596.5;;;3.48;100
17950;BME280;9100;48.700;9.316;2023-01-31T00:35:36;98605.8;;;3.48;100
17950;BME280;9100;48.700;9.316;2023-01-31T00:36:01;98596.7;;;3.45;100
17950;BME280;9100;48.700;9.316;2023-01-31T00:37:00;98589.3;;;3.43;100
17950;BME280;9100;48.700;9.316;2023-01-31T00:38:00;98600.3;;;3.42;100
17950;BME280;9100;48.700;9.316;2023-01-31T00:39:01;98592.9;;;3.39;100
17950;BME280;9100;48.700;9.316;2023-01-31T00:40:00;98590.5;;;3.38;100
17950;BME280;9100;48.700;9.316;2023-01-31T00:40:34;98600.7;;;3.36;100
17950;BME280;9100;48.700;9.316;2023-01-31T00:41:00;98593.9;;;3.37;100
17950;BME280;9100;48.700;9.316;2023-01-31T00:42:00;98596;;;3.32;100
17950;BME280;9100;48.700;9.316;2023-01-31T00:43:00;98592.8;;;3.3;100
17950;BME280;9100;48.700;9.316;2023-01-31T00:44:00;98591.2;;;3.29;100
17950;BME280;9100;48.700;9.316;2023-01-31T00:45:00;98592.9;;;3.28;100
17950;BME280;9100;48.700;9.316;2023-01-31T00:45:35;98598.1;;;3.27;100
17950;BME280;9100;48.700;9.316;2023-01-31T00:46:00;98593.9;;;3.26;100
17950;BME280;9100;48.700;9.316;2023-01-31T00:47:00;98589.8;;;3.25;100
17950;BME280;9100;48.700;9.316;2023-01-31T00:48:00;98598.2;;;3.24;100
17950;BME280;9100;48.700;9.316;2023-01-31T00:49:01;98602.5;;;3.23;100
17950;BME280;9100;48.700;9.316;2023-01-31T00:50:00;98596.7;;;3.23;100
17950;BME280;9100;48.700;9.316;2023-01-31T00:50:34;98595;;;3.22;100
17950;BME280;9100;48.700;9.316;2023-01-31T00:51:00;98600.09999999999;;;3.22;100
17950;BME280;9100;48.700;9.316;2023-01-31T00:52:00;98586.8;;;3.2;100
17950;BME280;9100;48.700;9.316;2023-01-31T00:53:01;98589.3;;;3.2;100
17950;BME280;9100;48.700;9.316;2023-01-31T00:54:00;98594.5;;;3.18;100
17950;BME280;9100;48.700;9.316;2023-01-31T00:55:00;98597.1;;;3.17;100
17950;BME280;9100;48.700;9.316;2023-01-31T00:55:34;98591.2;;;3.16;100
17950;BME280;9100;48.700;9.316;2023-01-31T00:56:01;98595.5;;;3.16;100
17950;BME280;9100;48.700;9.316;2023-01-31T00:57:00;98593.9;;;3.15;100
17950;BME280;9100;48.700;9.316;2023-01-31T00:58:00;98591.4;;;3.13;100
17950;BME280;9100;48.700;9.316;2023-01-31T00:59:00;98595.7;;;3.13;100
17950;BME280;9100;48.700;9.316;2023-01-31T01:00:00;98593.3;;;3.11;100
17950;BME280;9100;48.700;9.316;2023-01-31T01:00:34;98595.9;;;3.1;100
17950;BME280;9100;48.700;9.316;2023-01-31T01:01:04;98595.9;;;3.1;100
17950;BME280;9100;48.700;9.316;2023-01-31T01:02:01;98595.9;;;3.1;100
17950;BME280;9100;48.700;9.316;2023-01-31T01:03:01;98596.7;;;3.1;100
17950;BME280;9100;48.700;9.316;2023-01-31T01:04:01;98597.6;;;3.09;100
17950;BME280;9100;48.700;9.316;2023-01-31T01:05:00;98594.4;;;3.07;100
17950;BME280;9100;48.700;9.316;2023-01-31T01:05:34;98599.40000000001;;;3.09;100
17950;BME280;9100;48.700;9.316;2023-01-31T01:06:02;98597.7;;;3.08;100
17950;BME280;9100;48.700;9.316;2023-01-31T01:07:01;98597.7;;;3.08;100
17950;BME280;9100;48.700;9.316;2023-01-31T01:08:00;98601;;;3.1;100
17950;BME280;9100;48.700;9.316;2023-01-31T01:09:00;98596.8;;;3.09;100
17950;BME280;9100;48.700;9.316;2023-01-31T01:10:00;98596.1;;;3.07;100
17950;BME280;9100;48.700;9.316;2023-01-31T01:10:34;98593.6;;;3.07;100
17950;BME280;9100;48.700;9.316;2023-01-31T01:11:03;98590.4;;;3.05;100
17950;BME280;9100;48.700;9.316;2023-01-31T01:12:00;98589.5;;;3.06;100
17950;BME280;9100;48.700;9.316;2023-01-31T01:13:00;98592;;;3.06;100
17950;BME280;9100;48.700;9.316;2023-01-31T01:14:00;98587.09999999999;;;3.04;100
17950;BME280;9100;48.700;9.316;2023-01-31T01:15:02;98588.8;;;3.04;100
17950;BME280;9100;48.700;9.316;2023-01-31T01:15:36;98599;;;3.02;100
17950;BME280;9100;48.700;9.316;2023-01-31T01:16:03;98591.3;;;3.04;100
17950;BME280;9100;48.700;9.316;2023-01-31T01:17:01;98584.6;;;3.03;100
17950;BME280;9100;48.700;9.316;2023-01-31T01:18:00;98588.8;;;3.04;100
17950;BME280;9100;48.700;9.316;2023-01-31T01:19:01;98588;;;3.03;100
17950;BME280;9100;48.700;9.316;2023-01-31T01:20:00;98585.40000000001;;;3.03;100
17950;BME280;9100;48.700;9.316;2023-01-31T01:20:34;98592.9;;;3.05;100
17950;BME280;9100;48.700;9.316;2023-01-31T01:21:05;98593.7;;;3.05;100
17950;BME280;9100;48.700;9.316;2023-01-31T01:22:00;98590.4;;;3.05;100
17950;BME280;9100;48.700;9.316;2023-01-31T01:23:00;98596.3;;;3.05;100
17950;BME280;9100;48.700;9.316;2023-01-31T01:24:00;98596.1;;;3.07;100
17950;BME280;9100;48.700;9.316;2023-01-31T01:25:01;98592.8;;;3.06;100
17950;BME280;9100;48.700;9.316;2023-01-31T01:25:40;98589.5;;;3.06;100
17950;BME280;9100;48.700;9.316;2023-01-31T01:26:01;98586.90000000001;;;3.06;100
17950;BME280;9100;48.700;9.316;2023-01-31T01:27:00;98591.09999999999;;;3.07;100
17950;BME280;9100;48.700;9.316;2023-01-31T01:28:00;98589.5;;;3.06;100
17950;BME280;9100;48.700;9.316;2023-01-31T01:29:00;98587.90000000001;;;3.05;100
17950;BME280;9100;48.700;9.316;2023-01-31T01:30:00;98588.7;;;3.05;100
17950;BME280;9100;48.700;9.316;2023-01-31T01:30:36;98586.2;;;3.05;100
17950;BME280;9100;48.700;9.316;2023-01-31T01:31:03;98598.8;;;3.05;100
17950;BME280;9100;48.700;9.316;2023-01-31T01:32:00;98597.2;;;3.04;100
17950;BME280;9100;48.700;9.316;2023-01-31T01:33:00;98592.9;;;3.05;100
17950;BME280;9100;48.700;9.316;2023-01-31T01:34:02;98596.3;;;3.05;100
17950;BME280;9100;48.700;9.316;2023-01-31T01:35:00;98598;;;3.05;100
17950;BME280;9100;48.700;9.316;2023-01-31T01:35:35;98600.5;;;3.05;100
17950;BME280;9100;48.700;9.316;2023-01-31T01:36:00;98598;;;3.05;100
17950;BME280;9100;48.700;9.316;2023-01-31T01:37:00;98601.2;;;3.07;100
17950;BME280;9100;48.700;9.316;2023-01-31T01:38:00;98598.7;;;3.07;100
17950;BME280;9100;48.700;9.316;2023-01-31T01:39:01;98599.59999999999;;;3.06;100
17950;BME280;9100;48.700;9.316;2023-01-31T01:40:00;98593.7;;;3.05;100
17950;BME280;9100;48.700;9.316;2023-01-31T01:40:36;98591.3;;;3.04;100
17950;BME280;9100;48.700;9.316;2023-01-31T01:41:00;98594.6;;;3.04;100
17950;BME280;9100;48.700;9.316;2023-01-31T01:42:01;98593.8;;;3.04;100
17950;BME280;9100;48.700;9.316;2023-01-31T01:43:00;98596.3;;;3.05;100
17950;BME280;9100;48.700;9.316;2023-01-31T01:44:01;98587.90000000001;;;3.05;100
17950;BME280;9100;48.700;9.316;2023-01-31T01:45:00;98591.3;;;3.04;100
17950;BME280;9100;48.700;9.316;2023-01-31T01:45:35;98595.4;;;3.05;100
17950;BME280;9100;48.700;9.316;2023-01-31T01:46:01;98598;;;3.05;100
17950;BME280;9100;48.700;9.316;2023-01-31T01:47:01;98595.3;;;3.06;100
17950;BME280;9100;48.700;9.316;2023-01-31T01:48:02;98604.6;;;3.06;100
17950;BME280;9100;48.700;9.316;2023-01-31T01:49:02;98600.40000000001;;;3.06;100
17950;BME280;9100;48.700;9.316;2023-01-31T01:50:02;98598;;;3.05;100
17950;BME280;9100;48.700;9.316;2023-01-31T01:50:35;98599.59999999999;;;3.06;100
17950;BME280;9100;48.700;9.316;2023-01-31T01:51:00;98599.59999999999;;;3.06;100
17950;BME280;9100;48.700;9.316;2023-01-31T01:52:02;98597.7;;;3.08;100
17950;BME280;9100;48.700;9.316;2023-01-31T01:53:02;98601.8;;;3.1;100
17950;BME280;9100;48.700;9.316;2023-01-31T01:54:02;98600.9;;;3.11;100
17950;BME280;9100;48.700;9.316;2023-01-31T01:55:03;98605.1;;;3.11;100
17950;BME280;9100;48.700;9.316;2023-01-31T01:55:34;98599.2;;;3.1;100
17950;BME280;9100;48.700;9.316;2023-01-31T01:56:01;98597.5;;;3.11;100
17950;BME280;9100;48.700;9.316;2023-01-31T01:57:02;98598.29999999999;;;3.11;100
17950;BME280;9100;48.700;9.316;2023-01-31T01:58:01;98605.8;;;3.13;100
17950;BME280;9100;48.700;9.316;2023-01-31T01:59:02;98609.1;;;3.13;100
17950;BME280;9100;48.700;9.316;2023-01-31T02:00:03;98611.8;;;3.12;100
17950;BME280;9100;48.700;9.316;2023-01-31T02:00:34;98600.7;;;3.13;100
17950;BME280;9100;48.700;9.316;2023-01-31T02:01:00;98606.7;;;3.12;100
17950;BME280;9100;48.700;9.316;2023-01-31T02:02:00;98600.7;;;3.13;100
17950;BME280;9100;48.700;9.316;2023-01-31T02:03:01;98606.6;;;3.13;100
17950;BME280;9100;48.700;9.316;2023-01-31T02:04:00;98604.1;;;3.13;100
17950;BME280;9100;48.700;9.316;2023-01-31T02:05:00;98604.2;;;3.12;100
17950;BME280;9100;48.700;9.316;2023-01-31T02:05:35;98607.5;;;3.12;100
17950;BME280;9100;48.700;9.316;2023-01-31T02:06:02;98524.59999999999;;;2.59;100
17950;BME280;9100;48.700;9.316;2023-01-31T02:07:00;98619.4;;;3.12;100
17950;BME280;9100;48.700;9.316;2023-01-31T02:08:00;98613.4;;;3.13;100
17950;BME280;9100;48.700;9.316;2023-01-31T02:09:00;98617.7;;;3.12;100
17950;BME280;9100;48.700;9.316;2023-01-31T02:10:02;98615.9;;;3.13;100
17950;BME280;9100;48.700;9.316;2023-01-31T02:10:36;98611.8;;;3.12;100
17950;BME280;9100;48.700;9.316;2023-01-31T02:11:02;98615.20000000001;;;3.11;100
17950;BME280;9100;48.700;9.316;2023-01-31T02:12:01;98612.7;;;3.11;100
17950;BME280;9100;48.700;9.316;2023-01-31T02:13:01;98613.5;;;3.11;100
17950;BME280;9100;48.700;9.316;2023-01-31T02:14:02;98611;;;3.11;100
17950;BME280;9100;48.700;9.316;2023-01-31T02:15:01;98612.7;;;3.11;100
17950;BME280;9100;48.700;9.316;2023-01-31T02:15:34;98613.5;;;3.11;100
17950;BME280;9100;48.700;9.316;2023-01-31T02:16:00;98619.4;;;3.12;100
17950;BME280;9100;48.700;9.316;2023-01-31T02:17:00;98613.4;;;3.13;100
17950;BME280;9100;48.700;9.316;2023-01-31T02:18:00;98615.20000000001;;;3.11;100
17950;BME280;9100;48.700;9.316;2023-01-31T02:19:00;98610.1;;;3.12;100
17950;BME280;9100;48.700;9.316;2023-01-31T02:20:05;98608.3;;;3.13;100
17950;BME280;9100;48.700;9.316;2023-01-31T02:21:08;98608.3;;;3.13;100
17950;BME280;9100;48.700;9.316;2023-01-31T02:22:03;98599.8;;;3.14;100
17950;BME280;9100;48.700;9.316;2023-01-31T02:23:08;98611.7;;;3.13;100
17950;BME280;9100;48.700;9.316;2023-01-31T02:24:05;98607.6;;;3.11;100
17950;BME280;9100;48.700;9.316;2023-01-31T02:25:16;98613.5;;;3.11;100
17950;BME280;9100;48.700;9.316;2023-01-31T02:26:23;98612;;;3.09;100
17950;BME280;9100;48.700;9.316;2023-01-31T02:27:07;98609.5;;;3.09;100
17950;BME280;9100;48.700;9.316;2023-01-31T02:28:05;98612.90000000001;;;3.08;100
17950;BME280;9100;48.700;9.316;2023-01-31T02:29:10;98616.3;;;3.07;100
17950;BME280;9100;48.700;9.316;2023-01-31T02:30:06;98618.2;;;3.05;100
17950;BME280;9100;48.700;9.316;2023-01-31T02:30:40;98613.09999999999;;;3.05;100
17950;BME280;9100;48.700;9.316;2023-01-31T02:31:06;98614.70000000001;;;3.06;100
17950;BME280;9100;48.700;9.316;2023-01-31T02:32:36;98619.8;;;3.06;100
17950;BME280;9100;48.700;9.316;2023-01-31T02:33:02;98618.1;;;3.06;100
17950;BME280;9100;48.700;9.316;2023-01-31T02:34:02;98616.3;;;3.07;100
17950;BME280;9100;48.700;9.316;2023-01-31T02:35:05;98619;;;3.05;100
17950;BME280;9100;48.700;9.316;2023-01-31T02:35:38;98613.09999999999;;;3.05;100
17950;BME280;9100;48.700;9.316;2023-01-31T02:36:03;98621.6;;;3.04;100
17950;BME280;9100;48.700;9.316;2023-01-31T02:37:04;98620.7;;;3.05;100
17950;BME280;9100;48.700;9.316;2023-01-31T02:38:04;98619.8;;;3.06;100
17950;BME280;9100;48.700;9.316;2023-01-31T02:39:04;98619.9;;;3.04;100
17950;BME280;9100;48.700;9.316;2023-01-31T02:40:04;98614.3;;;3.01;100
17950;BME280;9100;48.700;9.316;2023-01-31T02:40:36;98610.1;;;3;100
17950;BME280;9100;48.700;9.316;2023-01-31T02:41:03;98615.20000000001;;;3;100
17950;BME280;9100;48.700;9.316;2023-01-31T02:42:03;98616.8;;;3.01;100
17950;BME280;9100;48.700;9.316;2023-01-31T02:43:02;98607.5;;;3.01;100
17950;BME280;9100;48.700;9.316;2023-01-31T02:44:04;98611.7;;;3.01;100
17950;BME280;9100;48.700;9.316;2023-01-31T02:45:03;98614.3;;;3.01;100
17950;BME280;9100;48.700;9.316;2023-01-31T02:45:36;98604.7;;;2.93;100
17950;BME280;9100;48.700;9.316;2023-01-31T02:46:03;98613.3;;;3.02;100
17950;BME280;9100;48.700;9.316;2023-01-31T02:47:01;98606.7;;;3.01;100
17950;BME280;9100;48.700;9.316;2023-01-31T02:48:04;98619.2;;;3.02;100
17950;BME280;9100;48.700;9.316;2023-01-31T02:49:01;98616.8;;;3.01;100
17950;BME280;9100;48.700;9.316;2023-01-31T02:50:02;98617.6;;;3.01;100
17950;BME280;9100;48.700;9.316;2023-01-31T02:50:35;98621.8;;;3.01;100
17950;BME280;9100;48.700;9.316;2023-01-31T02:51:02;98620.1;;;3.01;100
17950;BME280;9100;48.700;9.316;2023-01-31T02:52:02;98617.6;;;3.01;100
17950;BME280;9100;48.700;9.316;2023-01-31T02:53:02;98622.7;;;3.01;100
17950;BME280;9100;48.700;9.316;2023-01-31T02:54:02;98629.3;;;3.02;100
17950;BME280;9100;48.700;9.316;2023-01-31T02:55:03;98633.4;;;3.03;100
17950;BME280;9100;48.700;9.316;2023-01-31T02:55:35;98642.7;;;3.03;100
17950;BME280;9100;48.700;9.316;2023-01-31T02:56:02;98647.79999999999;;;3.03;100
17950;BME280;9100;48.700;9.316;2023-01-31T02:57:00;98642.6;;;3.04;100
17950;BME280;9100;48.700;9.316;2023-01-31T02:58:01;98562.59999999999;;;2.57;100
17950;BME280;9100;48.700;9.316;2023-01-31T02:59:01;98646.7;;;3.07;100
17950;BME280;9100;48.700;9.316;2023-01-31T03:00:02;98649.2;;;3.07;100
17950;BME280;9100;48.700;9.316;2023-01-31T03:00:34;98644.1;;;3.07;100
17950;BME280;9100;48.700;9.316;2023-01-31T03:01:01;98641.6;;;3.07;100
17950;BME280;9100;48.700;9.316;2023-01-31T03:02:01;98655;;;3.09;100
17950;BME280;9100;48.700;9.316;2023-01-31T03:03:02;98649;;;3.1;100
17950;BME280;9100;48.700;9.316;2023-01-31T03:04:02;98661.5;;;3.11;100
17950;BME280;9100;48.700;9.316;2023-01-31T03:05:00;98654;;;3.1;100
17950;BME280;9100;48.700;9.316;2023-01-31T03:05:34;98654;;;3.1;100
17950;BME280;9100;48.700;9.316;2023-01-31T03:07:01;98656.5;;;3.11;100
17950;BME280;9100;48.700;9.316;2023-01-31T03:07:06;98653.09999999999;;;3.11;100
17950;BME280;9100;48.700;9.316;2023-01-31T03:08:01;98653.09999999999;;;3.11;100
17950;BME280;9100;48.700;9.316;2023-01-31T03:09:02;98650.59999999999;;;3.11;100
17950;BME280;9100;48.700;9.316;2023-01-31T03:10:02;98652.3;;;3.1;100
17950;BME280;9100;48.700;9.316;2023-01-31T03:10:38;98651.5;;;3.1;100
17950;BME280;9100;48.700;9.316;2023-01-31T03:11:01;98658.2;;;3.11;100
17950;BME280;9100;48.700;9.316;2023-01-31T03:12:03;98654.8;;;3.1;100
17950;BME280;9100;48.700;9.316;2023-01-31T03:13:01;98651.5;;;3.1;100
17950;BME280;9100;48.700;9.316;2023-01-31T03:14:02;98652.3;;;3.1;100
17950;BME280;9100;48.700;9.316;2023-01-31T03:15:04;98652.3;;;3.1;100
17950;BME280;9100;48.700;9.316;2023-01-31T03:15:36;98649.90000000001;;;3.09;100
17950;BME280;9100;48.700;9.316;2023-01-31T03:16:02;98649.90000000001;;;3.09;100
17950;BME280;9100;48.700;9.316;2023-01-31T03:17:01;98654;;;3.1;100
17950;BME280;9100;48.700;9.316;2023-01-31T03:18:03;98646.40000000001;;;3.1;100
17950;BME280;9100;48.700;9.316;2023-01-31T03:19:02;98650.59999999999;;;3.11;100
17950;BME280;9100;48.700;9.316;2023-01-31T03:20:03;98650.59999999999;;;3.11;100
17950;BME280;9100;48.700;9.316;2023-01-31T03:20:36;98651.4;;;3.11;100
17950;BME280;9100;48.700;9.316;2023-01-31T03:21:02;98643.8;;;3.11;100
17950;BME280;9100;48.700;9.316;2023-01-31T03:22:02;98653.09999999999;;;3.11;100
17950;BME280;9100;48.700;9.316;2023-01-31T03:23:02;98649.8;;;3.1;100
17950;BME280;9100;48.700;9.316;2023-01-31T03:24:01;98653.09999999999;;;3.11;100
17950;BME280;9100;48.700;9.316;2023-01-31T03:25:01;98654.7;;;3.12;100
17950;BME280;9100;48.700;9.316;2023-01-31T03:25:35;98649.7;;;3.12;100
17950;BME280;9100;48.700;9.316;2023-01-31T03:26:01;98649.7;;;3.12;100
17950;BME280;9100;48.700;9.316;2023-01-31T03:27:01;98649.7;;;3.12;100
17950;BME280;9100;48.700;9.316;2023-01-31T03:28:02;98642.1;;;3.12;100
17950;BME280;9100;48.700;9.316;2023-01-31T03:29:00;98651.3;;;3.13;100
17950;BME280;9100;48.700;9.316;2023-01-31T03:30:03;98651.3;;;3.13;100
17950;BME280;9100;48.700;9.316;2023-01-31T03:30:35;98643;;;3.11;100
17950;BME280;9100;48.700;9.316;2023-01-31T03:31:02;98648.90000000001;;;3.11;100
17950;BME280;9100;48.700;9.316;2023-01-31T03:32:02;98649.7;;;3.12;100
17950;BME280;9100;48.700;9.316;2023-01-31T03:33:02;98650.59999999999;;;3.11;100
17950;BME280;9100;48.700;9.316;2023-01-31T03:34:02;98657.4;;;3.1;100
17950;BME280;9100;48.700;9.316;2023-01-31T03:35:01;98652.5;;;3.07;100
17950;BME280;9100;48.700;9.316;2023-01-31T03:35:34;98655.2;;;3.06;100
17950;BME280;9100;48.700;9.316;2023-01-31T03:36:03;98661.8;;;3.07;100
17950;BME280;9100;48.700;9.316;2023-01-31T03:37:02;98667.7;;;3.07;100
17950;BME280;9100;48.700;9.316;2023-01-31T03:38:03;98659.3;;;3.07;100
17950;BME280;9100;48.700;9.316;2023-01-31T03:39:04;98661;;;3.06;100
17950;BME280;9100;48.700;9.316;2023-01-31T03:40:02;98659.5;;;3.04;100
17950;BME280;9100;48.700;9.316;2023-01-31T03:40:35;98663.7;;;3.05;100
17950;BME280;9100;48.700;9.316;2023-01-31T03:41:01;98667.1;;;3.04;100
17950;BME280;9100;48.700;9.316;2023-01-31T03:42:01;98672.1;;;3.04;100
17950;BME280;9100;48.700;9.316;2023-01-31T03:43:01;98673;;;3.04;100
17950;BME280;9100;48.700;9.316;2023-01-31T03:44:01;98671.3;;;3.03;100
17950;BME280;9100;48.700;9.316;2023-01-31T03:45:01;98674.8;;;3.02;100
17950;BME280;9100;48.700;9.316;2023-01-31T03:45:35;98671.40000000001;;;3.02;100
17950;BME280;9100;48.700;9.316;2023-01-31T03:46:01;98672.40000000001;;;3.01;100
17950;BME280;9100;48.700;9.316;2023-01-31T03:47:02;98681.4;;;3.03;100
17950;BME280;9100;48.700;9.316;2023-01-31T03:48:01;98669.6;;;3.04;100
17950;BME280;9100;48.700;9.316;2023-01-31T03:49:01;98678.8;;;3.05;100
17950;BME280;9100;48.700;9.316;2023-01-31T03:50:02;98543.3;;;2.2;100
17950;BME280;9100;48.700;9.316;2023-01-31T03:50:34;98677.20000000001;;;3.04;100
17950;BME280;9100;48.700;9.316;2023-01-31T03:51:01;98676.3;;;3.05;100
17950;BME280;9100;48.700;9.316;2023-01-31T03:52:02;98675.40000000001;;;3.06;100
17950;BME280;9100;48.700;9.316;2023-01-31T03:53:01;98670.3;;;3.06;100
17950;BME280;9100;48.700;9.316;2023-01-31T03:54:02;98670.3;;;3.06;100
17950;BME280;9100;48.700;9.316;2023-01-31T03:55:01;98671.1;;;3.06;100
17950;BME280;9100;48.700;9.316;2023-01-31T03:55:35;98671.3;;;3.05;100
17950;BME280;9100;48.700;9.316;2023-01-31T03:56:01;98667;;;3.05;100
17950;BME280;9100;48.700;9.316;2023-01-31T03:57:01;98667.8;;;3.06;100
17950;BME280;9100;48.700;9.316;2023-01-31T03:58:01;98666.9;;;3.07;100
17950;BME280;9100;48.700;9.316;2023-01-31T03:59:03;98665.3;;;3.06;100
17950;BME280;9100;48.700;9.316;2023-01-31T04:00:01;98661.8;;;3.07;100
17950;BME280;9100;48.700;9.316;2023-01-31T04:00:34;98665.3;;;3.06;100
17950;BME280;9100;48.700;9.316;2023-01-31T04:01:00;98665.20000000001;;;3.07;100
17950;BME280;9100;48.700;9.316;2023-01-31T04:02:00;98661.8;;;3.07;100
17950;BME280;9100;48.700;9.316;2023-01-31T04:03:03;98664.3;;;3.07;100
17950;BME280;9100;48.700;9.316;2023-01-31T04:04:02;98665.3;;;3.06;100
17950;BME280;9100;48.700;9.316;2023-01-31T04:05:02;98665.3;;;3.06;100
17950;BME280;9100;48.700;9.316;2023-01-31T04:05:35;98672.79999999999;;;3.06;100
17950;BME280;9100;48.700;9.316;2023-01-31T04:06:00;98667.8;;;3.06;100
17950;BME280;9100;48.700;9.316;2023-01-31T04:07:00;98676.3;;;3.05;100
17950;BME280;9100;48.700;9.316;2023-01-31T04:08:00;98675.40000000001;;;3.06;100
17950;BME280;9100;48.700;9.316;2023-01-31T04:09:00;98680.3;;;3.07;100
17950;BME280;9100;48.700;9.316;2023-01-31T04:10:01;98675.40000000001;;;3.06;100
17950;BME280;9100;48.700;9.316;2023-01-31T04:10:34;98681.2;;;3.06;100
17950;BME280;9100;48.700;9.316;2023-01-31T04:11:02;98682;;;3.07;100
17950;BME280;9100;48.700;9.316;2023-01-31T04:12:01;98669.1;;;2.99;100
17950;BME280;9100;48.700;9.316;2023-01-31T04:13:00;98684.6;;;3.07;100
17950;BME280;9100;48.700;9.316;2023-01-31T04:14:00;98674.59999999999;;;3.05;100
17950;BME280;9100;48.700;9.316;2023-01-31T04:15:00;98677.9;;;3.06;100
17950;BME280;9100;48.700;9.316;2023-01-31T04:15:36;98680.5;;;3.04;100
17950;BME280;9100;48.700;9.316;2023-01-31T04:16:00;98686.5;;;3.03;100
17950;BME280;9100;48.700;9.316;2023-01-31T04:17:01;98685.6;;;3.04;100
17950;BME280;9100;48.700;9.316;2023-01-31T04:18:01;98686.5;;;3.03;100
17950;BME280;9100;48.700;9.316;2023-01-31T04:19:01;98687.3;;;3.04;100
17950;BME280;9100;48.700;9.316;2023-01-31T04:20:01;98687.40000000001;;;3.02;100
17950;BME280;9100;48.700;9.316;2023-01-31T04:20:35;98689.09999999999;;;3.02;100
17950;BME280;9100;48.700;9.316;2023-01-31T04:21:00;98689.09999999999;;;3.02;100
17950;BME280;9100;48.700;9.316;2023-01-31T04:22:01;98689.9;;;3.02;100
17950;BME280;9100;48.700;9.316;2023-01-31T04:23:02;98692.5;;;3.02;100
17950;BME280;9100;48.700;9.316;2023-01-31T04:24:01;98691.8;;;3;100
17950;BME280;9100;48.700;9.316;2023-01-31T04:25:00;98685.90000000001;;;3;100
17950;BME280;9100;48.700;9.316;2023-01-31T04:25:34;98694.4;;;2.99;100
17950;BME280;9100;48.700;9.316;2023-01-31T04:26:01;98693.5;;;3;100
17950;BME280;9100;48.700;9.316;2023-01-31T04:27:01;98693.5;;;3;100
17950;BME280;9100;48.700;9.316;2023-01-31T04:28:02;98687.5;;;3.01;100
17950;BME280;9100;48.700;9.316;2023-01-31T04:29:00;98686.7;;;3;100
17950;BME280;9100;48.700;9.316;2023-01-31T04:30:00;98686.8;;;2.99;100
17950;BME280;9100;48.700;9.316;2023-01-31T04:30:34;98686;;;2.98;100
17950;BME280;9100;48.700;9.316;2023-01-31T04:31:00;98693.6;;;2.98;100
17950;BME280;9100;48.700;9.316;2023-01-31T04:32:00;98690.3;;;2.98;100
17950;BME280;9100;48.700;9.316;2023-01-31T04:33:00;98689.59999999999;;;2.96;100
17950;BME280;9100;48.700;9.316;2023-01-31T04:34:00;98692.1;;;2.96;100
17950;BME280;9100;48.700;9.316;2023-01-31T04:35:00;98692.2;;;2.94;100
17950;BME280;9100;48.700;9.316;2023-01-31T04:35:34;98689.8;;;2.92;100
17950;BME280;9100;48.700;9.316;2023-01-31T04:36:00;98691.4;;;2.93;100
17950;BME280;9100;48.700;9.316;2023-01-31T04:37:00;98694.8;;;2.92;100
17950;BME280;9100;48.700;9.316;2023-01-31T04:38:00;98692.3;;;2.92;100
17950;BME280;9100;48.700;9.316;2023-01-31T04:39:01;98689.20000000001;;;2.89;100